Time;durP1;ratioP1;P1;durP2;ratioP2;P2;SDS_P1;SDS_P2;PMS_P1;PMS_P2;Temp;Humidity;BMP_temperature;BMP_pressure;BME280_temperature;BME280_humidity;BME280_pressure;Samples;Min_cycle;Max_cycle;Signal;HPM_P1;HPM_P2
2023/01/10 00:00:22;;;;;;;14.43;4.13;;;5.80;99.90;;;;;;5112525;27;20046;-82
2023/01/10 00:02:49;;;;;;;12.38;2.30;;;5.80;99.90;;;;;;5125663;27;20118;-82
2023/01/10 00:05:15;;;;;;;14.18;4.35;;;5.80;99.90;;;;;;5131244;27;20043;-81
2023/01/10 00:07:41;;;;;;;12.48;2.70;;;5.70;99.90;;;;;;5112578;28;20085;-82
2023/01/10 00:10:07;;;;;;;11.10;2.45;;;5.70;99.90;;;;;;5112233;27;20035;-81
2023/01/10 00:15:17;;;;;;;11.80;2.60;;;5.60;99.90;;;;;;5110533;28;20050;-81
2023/01/10 00:17:42;;;;;;;11.27;2.70;;;5.50;99.90;;;;;;5099386;28;20039;-81
2023/01/10 00:20:09;;;;;;;16.35;4.30;;;5.40;99.90;;;;;;5112708;28;20459;-81
2023/01/10 00:22:34;;;;;;;10.73;2.42;;;5.40;99.90;;;;;;5099005;28;20089;-82
2023/01/10 00:25:00;;;;;;;13.32;2.90;;;5.30;99.90;;;;;;5109739;28;20044;-82
2023/01/10 00:27:26;;;;;;;15.30;5.07;;;5.30;99.90;;;;;;5092215;28;20476;-82
2023/01/10 00:29:51;;;;;;;9.93;1.90;;;5.30;99.90;;;;;;5111565;28;20035;-82
2023/01/10 00:32:18;;;;;;;10.38;2.35;;;5.30;99.90;;;;;;5119642;27;20472;-82
2023/01/10 00:34:44;;;;;;;18.92;5.10;;;5.30;99.90;;;;;;5111761;28;20035;-82
2023/01/10 00:37:10;;;;;;;12.38;2.78;;;5.30;99.90;;;;;;5128152;27;20043;-82
2023/01/10 00:39:35;;;;;;;17.40;3.53;;;5.40;99.90;;;;;;5115740;27;20121;-82
2023/01/10 00:44:45;;;;;;;14.50;3.30;;;5.50;99.90;;;;;;5114276;28;20458;-81
2023/01/10 00:47:12;;;;;;;17.50;5.43;;;5.60;99.90;;;;;;5114261;28;20047;-82
2023/01/10 00:49:38;;;;;;;13.80;3.13;;;5.60;99.90;;;;;;5100661;27;20039;-81
2023/01/10 00:52:04;;;;;;;16.90;3.45;;;5.70;99.90;;;;;;5125940;27;20071;-81
2023/01/10 00:54:30;;;;;;;23.20;5.63;;;5.80;99.90;;;;;;5095854;28;20071;-81
2023/01/10 00:56:55;;;;;;;20.50;3.53;;;5.80;99.90;;;;;;5114280;28;20079;-81
2023/01/10 00:59:22;;;;;;;10.73;2.65;;;5.90;99.90;;;;;;5095634;28;20480;-81
2023/01/10 01:01:49;;;;;;;21.30;5.15;;;5.90;99.90;;;;;;5125738;27;20050;-81
2023/01/10 01:04:14;;;;;;;13.50;3.30;;;5.90;99.90;;;;;;5095059;28;20035;-81
2023/01/10 01:06:42;;;;;;;12.55;2.10;;;6.00;99.90;;;;;;5095703;28;20148;-81
2023/01/10 01:09:08;;;;;;;18.35;5.07;;;6.00;99.90;;;;;;5095216;28;20051;-82
2023/01/10 01:11:34;;;;;;;19.83;5.93;;;6.00;99.90;;;;;;5113644;27;20446;-82
2023/01/10 01:13:59;;;;;;;11.52;2.90;;;6.10;99.90;;;;;;5095075;28;20040;-82
2023/01/10 01:16:25;;;;;;;25.35;6.10;;;6.00;99.90;;;;;;5095458;28;20043;-81
2023/01/10 01:18:50;;;;;;;12.93;2.63;;;6.00;99.90;;;;;;5106211;28;20034;-82
2023/01/10 01:21:17;;;;;;;18.52;3.47;;;6.00;99.90;;;;;;5118874;27;20027;-82
2023/01/10 01:23:43;;;;;;;21.65;5.70;;;6.00;99.90;;;;;;5148496;27;20568;-82
2023/01/10 01:26:09;;;;;;;13.05;2.53;;;6.10;99.90;;;;;;5114387;28;20047;-82
2023/01/10 01:28:36;;;;;;;22.67;5.70;;;6.10;99.90;;;;;;5114793;28;20376;-82
2023/01/10 01:31:07;;;;;;;19.25;5.40;;;6.10;99.90;;;;;;5130341;28;20388;-82
2023/01/10 01:33:32;;;;;;;13.45;2.92;;;6.10;99.90;;;;;;5099484;28;20044;-82
2023/01/10 01:35:58;;;;;;;11.75;2.10;;;6.20;99.90;;;;;;5095495;28;20050;-82
2023/01/10 01:38:24;;;;;;;18.48;4.40;;;6.20;99.90;;;;;;5133035;28;20050;-81
2023/01/10 01:40:49;;;;;;;11.88;2.88;;;6.20;99.90;;;;;;5110246;28;20043;-82
2023/01/10 01:43:25;;;;;;;14.32;2.63;;;6.30;99.90;;;;;;5093818;28;20047;-82
2023/01/10 01:45:52;;;;;;;16.42;4.43;;;6.20;99.90;;;;;;5093694;28;20031;-82
2023/01/10 01:48:23;;;;;;;14.20;2.63;;;6.20;99.90;;;;;;5111949;28;20032;-82
2023/01/10 01:51:06;;;;;;;11.40;3.63;;;6.00;99.90;;;;;;5111313;28;20113;-82
2023/01/10 01:53:46;;;;;;;20.50;4.75;;;5.90;99.90;;;;;;5093746;28;20075;-80
2023/01/10 01:56:21;;;;;;;11.70;2.60;;;5.90;99.90;;;;;;5127591;27;20043;-80
2023/01/10 01:58:58;;;;;;;20.45;5.03;;;5.90;99.90;;;;;;5104897;28;20126;-82
2023/01/10 02:01:26;;;;;;;14.27;3.15;;;5.90;99.90;;;;;;5106125;28;20039;-81
2023/01/10 02:04:10;;;;;;;15.52;2.67;;;5.80;99.90;;;;;;5103331;28;20049;-81
2023/01/10 02:06:36;;;;;;;17.15;4.70;;;5.80;99.90;;;;;;5147338;27;20083;-81
2023/01/10 02:09:27;;;;;;;15.63;4.82;;;5.70;99.90;;;;;;5112483;28;20055;-81
2023/01/10 02:11:54;;;;;;;19.15;3.55;;;5.60;99.90;;;;;;5130954;28;20039;-81
2023/01/10 02:14:23;;;;;;;16.02;3.20;;;5.60;99.90;;;;;;5132053;28;20043;-81
2023/01/10 02:16:49;;;;;;;17.67;4.50;;;5.50;99.90;;;;;;5100279;28;20048;-81
2023/01/10 02:19:43;;;;;;;20.42;5.20;;;5.50;99.90;;;;;;5092592;28;20036;-81
2023/01/10 02:22:38;;;;;;;17.27;3.22;;;5.50;99.90;;;;;;5094558;28;20143;-82
2023/01/10 02:25:35;;;;;;;13.50;2.92;;;5.50;99.90;;;;;;5073872;27;1089206;-82
2023/01/10 02:28:22;;;;;;;18.77;5.00;;;5.50;99.90;;;;;;5116649;27;20047;-82
2023/01/10 02:30:59;;;;;;;13.88;2.85;;;5.50;99.90;;;;;;5113333;27;20043;-82
2023/01/10 02:33:38;;;;;;;12.70;2.47;;;5.40;99.90;;;;;;5109871;27;20035;-82
2023/01/10 02:36:04;;;;;;;17.45;2.80;;;5.30;99.90;;;;;;5102083;27;20063;-82
2023/01/10 02:38:51;;;;;;;17.77;2.72;;;5.30;99.90;;;;;;5132855;27;20487;-82
2023/01/10 02:41:38;;;;;;;12.98;2.85;;;5.20;99.90;;;;;;5113181;27;20039;-82
2023/01/10 02:44:13;;;;;;;17.30;4.93;;;5.20;99.90;;;;;;5148278;27;20053;-82
2023/01/10 02:46:39;;;;;;;20.30;5.10;;;5.10;99.90;;;;;;5132496;27;20390;-82
2023/01/10 02:49:08;;;;;;;10.85;2.42;;;5.00;99.90;;;;;;5113493;27;20122;-82
2023/01/10 02:51:34;;;;;;;13.88;2.50;;;5.00;99.90;;;;;;5116444;27;20080;-83
2023/01/10 02:54:08;;;;;;;11.90;2.60;;;5.00;99.90;;;;;;5092516;28;20040;-82
2023/01/10 02:56:58;;;;;;;11.57;2.75;;;5.00;99.90;;;;;;5134770;27;20073;-83
2023/01/10 02:59:41;;;;;;;10.63;2.58;;;5.00;99.90;;;;;;5111850;28;20036;-82
2023/01/10 03:02:20;;;;;;;14.65;2.90;;;5.10;99.90;;;;;;5138105;27;20445;-80
2023/01/10 03:05:01;;;;;;;15.45;3.35;;;5.20;99.90;;;;;;5132153;27;20506;-81
2023/01/10 03:08:10;;;;;;;16.60;3.28;;;5.30;99.90;;;;;;5132485;27;20039;-81
2023/01/10 03:10:52;;;;;;;21.10;5.30;;;5.30;99.90;;;;;;5077439;28;20059;-80
2023/01/10 03:13:25;;;;;;;11.70;2.83;;;5.40;99.90;;;;;;5130047;27;20432;-81
2023/01/10 03:15:53;;;;;;;11.52;3.10;;;5.40;99.90;;;;;;5113294;27;20055;-80
2023/01/10 03:18:31;;;;;;;21.30;5.65;;;5.40;99.90;;;;;;5113476;27;20451;-80
2023/01/10 03:21:01;;;;;;;11.00;3.20;;;5.50;99.90;;;;;;5145255;27;20035;-79
2023/01/10 03:23:27;;;;;;;18.05;5.13;;;5.60;99.90;;;;;;5117231;27;20569;-80
2023/01/10 03:25:56;;;;;;;16.83;3.28;;;5.60;99.90;;;;;;5116644;27;20074;-82
2023/01/10 03:28:46;;;;;;;20.25;5.65;;;5.60;99.90;;;;;;5092813;28;20039;-79
2023/01/10 03:31:21;;;;;;;15.77;3.38;;;5.70;99.90;;;;;;5110714;27;20113;-81
2023/01/10 03:33:47;;;;;;;13.50;3.25;;;5.80;99.90;;;;;;5126870;27;20040;-81
2023/01/10 03:36:21;;;;;;;19.95;5.47;;;5.80;99.90;;;;;;5120187;27;20550;-81
2023/01/10 03:38:56;;;;;;;13.80;3.38;;;5.80;99.90;;;;;;5112898;27;20039;-82
2023/01/10 03:41:36;;;;;;;15.35;3.97;;;5.70;99.90;;;;;;5125009;27;20061;-83
2023/01/10 03:47:22;;;;;;;17.20;4.80;;;5.60;99.90;;;;;;5130217;27;20291;-81
2023/01/10 03:49:53;;;;;;;13.38;3.30;;;5.50;99.90;;;;;;5131137;27;20448;-81
2023/01/10 03:52:20;;;;;;;14.90;3.17;;;5.50;99.90;;;;;;5111226;27;20039;-81
2023/01/10 03:54:46;;;;;;;14.45;3.42;;;5.50;99.90;;;;;;5103412;28;20076;-81
2023/01/10 03:57:23;;;;;;;16.58;4.07;;;5.50;99.90;;;;;;5109956;27;20035;-80
2023/01/10 03:59:52;;;;;;;20.25;4.97;;;5.60;99.90;;;;;;5095202;27;20122;-81
2023/01/10 04:02:18;;;;;;;15.50;3.00;;;5.70;99.90;;;;;;5118000;28;20084;-81
2023/01/10 04:04:44;;;;;;;19.42;4.05;;;5.70;99.90;;;;;;5110658;28;20035;-81
2023/01/10 04:07:10;;;;;;;16.52;3.53;;;5.80;99.90;;;;;;5110251;28;20528;-81
2023/01/10 04:09:36;;;;;;;11.82;2.67;;;5.80;99.90;;;;;;5092247;28;20400;-81
2023/01/10 04:12:01;;;;;;;18.60;5.15;;;5.90;99.90;;;;;;5119550;27;20050;-81
2023/01/10 04:14:27;;;;;;;19.08;4.85;;;6.00;99.90;;;;;;5112044;28;20144;-81
2023/01/10 04:16:54;;;;;;;11.02;2.55;;;6.10;99.90;;;;;;5112376;28;20039;-81
2023/01/10 04:19:19;;;;;;;15.75;5.00;;;6.10;99.90;;;;;;5131015;28;20411;-81
2023/01/10 04:21:45;;;;;;;14.50;3.72;;;6.20;99.90;;;;;;5129634;28;20035;-82
2023/01/10 04:24:11;;;;;;;11.98;2.88;;;6.20;99.90;;;;;;5103726;28;20090;-81
2023/01/10 04:26:36;;;;;;;24.33;6.43;;;6.20;99.90;;;;;;5110772;28;20127;-82
2023/01/10 04:29:02;;;;;;;20.77;5.38;;;6.20;99.90;;;;;;5091075;28;20042;-82
2023/01/10 04:31:28;;;;;;;14.43;3.65;;;6.30;99.90;;;;;;5124666;28;20092;-81
2023/01/10 04:33:53;;;;;;;20.80;5.40;;;6.20;99.90;;;;;;5112097;28;20035;-81
2023/01/10 04:36:19;;;;;;;17.05;3.92;;;6.20;99.90;;;;;;5112520;28;20042;-82
2023/01/10 04:38:44;;;;;;;14.80;3.03;;;6.20;99.90;;;;;;5105760;28;20120;-82
2023/01/10 04:41:10;;;;;;;22.85;6.20;;;6.20;99.90;;;;;;5116597;28;20037;-82
2023/01/10 04:43:36;;;;;;;21.80;5.97;;;6.20;99.90;;;;;;5074803;28;20044;-82
2023/01/10 04:46:02;;;;;;;21.98;6.38;;;6.20;99.90;;;;;;5109966;28;20446;-82
2023/01/10 04:48:28;;;;;;;22.63;6.10;;;6.20;99.90;;;;;;5092219;28;20055;-82
2023/01/10 04:50:54;;;;;;;16.05;3.33;;;6.20;99.90;;;;;;5109882;28;20137;-81
2023/01/10 04:53:20;;;;;;;21.88;6.07;;;6.20;99.90;;;;;;5091492;28;20047;-81
2023/01/10 04:55:46;;;;;;;21.23;5.95;;;6.20;99.90;;;;;;5099433;28;20043;-81
2023/01/10 04:58:12;;;;;;;17.95;5.30;;;6.20;99.90;;;;;;5129866;28;20046;-81
2023/01/10 05:00:38;;;;;;;11.77;2.88;;;6.10;99.90;;;;;;5112457;28;20394;-81
2023/01/10 05:03:04;;;;;;;17.92;4.22;;;6.10;99.90;;;;;;5126168;27;20048;-82
2023/01/10 05:05:30;;;;;;;20.42;5.93;;;6.10;99.90;;;;;;5128300;28;20042;-81
2023/01/10 05:07:56;;;;;;;15.23;3.28;;;6.00;99.90;;;;;;5112464;28;20395;-80
2023/01/10 05:10:22;;;;;;;20.70;5.70;;;6.00;99.90;;;;;;5091888;28;20024;-80
2023/01/10 05:12:47;;;;;;;22.52;6.32;;;6.00;99.90;;;;;;5109515;28;20101;-83
2023/01/10 05:15:13;;;;;;;17.45;3.60;;;6.10;99.90;;;;;;5091100;28;20074;-83
2023/01/10 05:17:39;;;;;;;24.23;6.07;;;6.10;99.90;;;;;;5095674;28;20118;-82
2023/01/10 05:20:06;;;;;;;18.70;3.78;;;6.00;99.90;;;;;;5095402;28;20191;-83
2023/01/10 05:22:32;;;;;;;21.73;6.38;;;6.00;99.90;;;;;;5095531;28;20127;-83
2023/01/10 05:24:58;;;;;;;13.85;2.60;;;6.00;99.90;;;;;;5107493;27;20043;-83
2023/01/10 05:27:24;;;;;;;18.70;3.47;;;5.90;99.90;;;;;;5097922;27;20047;-83
2023/01/10 05:29:50;;;;;;;21.92;5.53;;;5.90;99.90;;;;;;5095479;28;20065;-83
2023/01/10 05:32:15;;;;;;;22.95;6.30;;;5.90;99.90;;;;;;5108579;27;20039;-83
2023/01/10 05:34:41;;;;;;;18.70;3.90;;;5.90;99.90;;;;;;5104190;28;20043;-83
2023/01/10 05:37:07;;;;;;;16.10;3.20;;;5.80;99.90;;;;;;5094826;28;20479;-84
2023/01/10 05:39:33;;;;;;;27.70;6.53;;;5.80;99.90;;;;;;5116366;27;20073;-82
2023/01/10 05:41:59;;;;;;;22.60;6.53;;;5.80;99.90;;;;;;5113945;27;20093;-83
2023/01/10 05:44:25;;;;;;;25.42;7.45;;;5.80;99.90;;;;;;5115347;27;20118;-82
2023/01/10 05:46:50;;;;;;;12.27;3.28;;;5.90;99.90;;;;;;5133982;27;20123;-81
2023/01/10 05:49:16;;;;;;;18.08;4.32;;;5.90;99.90;;;;;;5133737;27;20486;-80
2023/01/10 05:51:42;;;;;;;21.73;6.38;;;5.90;99.90;;;;;;5113994;27;20050;-81
2023/01/10 05:54:07;;;;;;;16.83;4.00;;;6.00;99.90;;;;;;5115178;27;20129;-81
2023/01/10 05:56:33;;;;;;;22.67;4.55;;;6.00;99.90;;;;;;5105486;27;20035;-81
2023/01/10 05:58:59;;;;;;;26.83;6.95;;;6.00;99.90;;;;;;5132274;27;20035;-82
2023/01/10 06:01:24;;;;;;;24.33;7.03;;;6.00;99.90;;;;;;5099933;28;20042;-81
2023/01/10 06:03:50;;;;;;;23.15;7.47;;;6.00;99.90;;;;;;5094310;28;20047;-81
2023/01/10 06:06:16;;;;;;;21.08;4.47;;;6.10;99.90;;;;;;5112493;28;20035;-81
2023/01/10 06:08:41;;;;;;;23.45;7.18;;;6.00;99.90;;;;;;5105594;27;20050;-81
2023/01/10 06:11:07;;;;;;;21.67;4.25;;;5.90;99.90;;;;;;5128013;27;20042;-81
2023/01/10 06:13:33;;;;;;;23.95;7.07;;;5.90;99.90;;;;;;5114160;27;20047;-81
2023/01/10 06:15:59;;;;;;;14.02;3.45;;;5.90;99.90;;;;;;5132840;27;20042;-82
2023/01/10 06:18:25;;;;;;;24.00;7.32;;;5.90;99.90;;;;;;5114879;27;20121;-82
2023/01/10 06:20:50;;;;;;;17.20;4.40;;;5.90;99.90;;;;;;5137439;27;20110;-81
2023/01/10 06:23:16;;;;;;;21.85;7.55;;;5.90;99.90;;;;;;5111966;27;20404;-82
2023/01/10 06:25:42;;;;;;;22.05;7.03;;;5.90;99.90;;;;;;5114067;27;20464;-82
2023/01/10 06:28:10;;;;;;;20.98;6.32;;;5.90;99.90;;;;;;5130265;27;20088;-81
2023/01/10 06:30:35;;;;;;;15.70;3.80;;;5.90;99.90;;;;;;5106368;28;20047;-81
2023/01/10 06:33:03;;;;;;;23.15;7.20;;;6.00;99.90;;;;;;5102634;27;20095;-82
2023/01/10 06:35:29;;;;;;;25.75;8.13;;;6.00;99.90;;;;;;5114079;27;20050;-82
2023/01/10 06:37:55;;;;;;;15.40;3.85;;;6.00;99.90;;;;;;5114100;27;20111;-82
2023/01/10 06:40:21;;;;;;;24.83;7.32;;;6.00;99.90;;;;;;5111061;27;20050;-82
2023/01/10 06:42:47;;;;;;;22.42;6.88;;;6.00;99.90;;;;;;5091043;27;20550;-83
2023/01/10 06:45:12;;;;;;;13.75;3.53;;;6.00;99.90;;;;;;5130436;27;20426;-81
2023/01/10 06:47:38;;;;;;;17.90;4.00;;;6.00;99.90;;;;;;5111888;27;20039;-78
2023/01/10 06:50:04;;;;;;;25.50;7.47;;;6.00;99.90;;;;;;5110560;27;20039;-81
2023/01/10 06:52:30;;;;;;;24.83;7.50;;;6.00;99.90;;;;;;5128868;27;20054;-82
2023/01/10 06:54:56;;;;;;;12.90;4.18;;;6.10;99.90;;;;;;5109485;27;20035;-81
2023/01/10 06:57:21;;;;;;;23.08;7.60;;;6.10;99.90;;;;;;5107427;27;20040;-80
2023/01/10 06:59:47;;;;;;;17.17;4.40;;;6.10;99.90;;;;;;5109052;27;20035;-82
2023/01/10 07:02:13;;;;;;;17.00;3.97;;;6.00;99.90;;;;;;5109207;27;20039;-80
2023/01/10 07:04:39;;;;;;;24.15;7.88;;;6.00;99.90;;;;;;5114773;27;20043;-80
2023/01/10 07:07:05;;;;;;;16.02;4.38;;;6.00;99.90;;;;;;5108551;27;20046;-80
2023/01/10 07:09:30;;;;;;;26.20;8.20;;;5.90;99.90;;;;;;5123656;27;20050;-79
2023/01/10 07:11:56;;;;;;;24.83;8.40;;;5.90;99.90;;;;;;5113463;27;20023;-80
2023/01/10 07:14:22;;;;;;;18.65;4.22;;;5.80;99.90;;;;;;5112509;27;20031;-79
2023/01/10 07:16:47;;;;;;;15.88;4.03;;;5.80;99.90;;;;;;5114413;27;20027;-79
2023/01/10 07:19:14;;;;;;;27.20;8.00;;;5.80;99.90;;;;;;5112648;27;20112;-79
2023/01/10 07:21:40;;;;;;;19.55;5.22;;;5.80;99.90;;;;;;5128456;27;20395;-78
2023/01/10 07:24:07;;;;;;;25.80;7.25;;;5.90;99.90;;;;;;5094625;27;20067;-80
2023/01/10 07:26:32;;;;;;;21.90;4.22;;;5.90;99.90;;;;;;5123662;27;20137;-79
2023/01/10 07:28:58;;;;;;;26.27;7.90;;;5.90;99.90;;;;;;5117813;27;20078;-79
2023/01/10 07:31:24;;;;;;;22.05;7.10;;;5.90;99.90;;;;;;5131895;27;20039;-79
2023/01/10 07:33:51;;;;;;;14.45;3.67;;;5.90;99.90;;;;;;5118336;27;20035;-80
2023/01/10 07:36:16;;;;;;;15.57;4.43;;;5.90;99.90;;;;;;5121363;27;20046;-82
2023/01/10 07:38:42;;;;;;;14.10;3.70;;;5.90;99.90;;;;;;5129167;27;20031;-83
2023/01/10 07:41:08;;;;;;;23.33;7.00;;;5.90;99.90;;;;;;5129131;27;20035;-83
2023/01/10 07:43:34;;;;;;;24.45;7.68;;;5.90;99.90;;;;;;5113337;27;20043;-81
2023/01/10 07:46:02;;;;;;;16.90;4.13;;;5.90;99.90;;;;;;5110977;27;20486;-80
2023/01/10 07:48:28;;;;;;;20.05;7.07;;;5.90;99.90;;;;;;5104129;27;20453;-80
2023/01/10 07:50:58;;;;;;;17.25;3.88;;;5.90;99.90;;;;;;5111004;27;20042;-81
2023/01/10 07:53:26;;;;;;;18.60;4.32;;;5.90;99.90;;;;;;5128340;27;20087;-80
2023/01/10 07:55:52;;;;;;;21.40;7.53;;;5.90;99.90;;;;;;5131511;27;20429;-81
2023/01/10 07:58:17;;;;;;;25.20;7.28;;;5.90;99.90;;;;;;5130540;27;20339;-80
2023/01/10 08:00:44;;;;;;;19.25;4.68;;;6.00;99.90;;;;;;5110759;27;20043;-81
2023/01/10 08:03:11;;;;;;;16.08;3.72;;;6.00;99.90;;;;;;5121772;27;20110;-80
2023/01/10 08:05:37;;;;;;;21.88;7.07;;;6.00;99.90;;;;;;5097332;27;20053;-80
2023/01/10 08:08:05;;;;;;;23.08;7.40;;;6.00;99.90;;;;;;5122086;27;20035;-82
2023/01/10 08:10:33;;;;;;;16.63;4.22;;;6.00;99.90;;;;;;5130417;27;20043;-81
2023/01/10 08:12:58;;;;;;;24.15;6.95;;;6.10;99.90;;;;;;5108665;28;20400;-81
2023/01/10 08:15:24;;;;;;;15.45;4.07;;;6.10;99.90;;;;;;5111580;27;20038;-81
2023/01/10 08:17:50;;;;;;;20.17;5.13;;;6.10;99.90;;;;;;5116065;28;20057;-81
2023/01/10 08:20:15;;;;;;;23.20;7.45;;;6.10;99.90;;;;;;5082014;28;20043;-82
2023/01/10 08:22:41;;;;;;;22.33;7.35;;;6.10;99.90;;;;;;5105056;28;20043;-82
2023/01/10 08:25:07;;;;;;;23.55;5.35;;;6.10;99.90;;;;;;5087093;28;20563;-85
2023/01/10 08:27:33;;;;;;;23.23;7.90;;;6.10;99.90;;;;;;5108142;28;20035;-85
2023/01/10 08:29:59;;;;;;;19.50;4.93;;;6.10;99.90;;;;;;5128923;28;20062;-83
2023/01/10 08:32:24;;;;;;;25.77;8.23;;;6.00;99.90;;;;;;5114918;28;20035;-85
2023/01/10 08:34:50;;;;;;;23.27;7.43;;;6.00;99.90;;;;;;5108626;28;20043;-84
2023/01/10 08:37:16;;;;;;;20.40;4.78;;;5.90;99.90;;;;;;5111311;28;20395;-85
2023/01/10 08:39:41;;;;;;;15.55;4.20;;;5.90;99.90;;;;;;5103278;28;20552;-83
2023/01/10 08:42:07;;;;;;;21.42;7.55;;;5.90;99.90;;;;;;5113693;28;20064;-83
2023/01/10 08:44:33;;;;;;;27.33;7.53;;;5.80;99.90;;;;;;5107374;28;20043;-84
2023/01/10 08:46:58;;;;;;;18.45;4.80;;;5.90;99.90;;;;;;5127640;28;20035;-88
2023/01/10 08:49:24;;;;;;;16.27;4.55;;;5.80;99.90;;;;;;5111268;28;20438;-85
2023/01/10 08:51:49;;;;;;;16.15;4.30;;;5.80;99.90;;;;;;5113259;28;20582;-85
2023/01/10 08:54:15;;;;;;;18.63;4.75;;;5.80;99.90;;;;;;5139261;27;20035;-83
2023/01/10 08:56:41;;;;;;;25.23;7.68;;;5.80;99.90;;;;;;5127798;27;20042;-84
2023/01/10 08:59:07;;;;;;;15.75;3.90;;;5.80;99.90;;;;;;5096720;27;20494;-83
2023/01/10 09:01:33;;;;;;;27.90;7.55;;;5.90;99.90;;;;;;5129954;27;20156;-84
2023/01/10 09:03:59;;;;;;;22.25;7.75;;;5.90;99.90;;;;;;5113922;27;20042;-83
2023/01/10 09:06:24;;;;;;;16.90;4.30;;;5.90;99.90;;;;;;5141802;27;20092;-84
2023/01/10 09:08:50;;;;;;;20.33;5.57;;;6.00;99.90;;;;;;5097900;28;20044;-82
2023/01/10 09:11:16;;;;;;;22.02;7.28;;;6.00;99.90;;;;;;5119914;27;20034;-82
2023/01/10 09:13:42;;;;;;;19.17;4.97;;;6.10;99.90;;;;;;5110035;27;20540;-81
2023/01/10 09:16:08;;;;;;;24.38;8.32;;;6.10;99.90;;;;;;5123483;27;20099;-81
2023/01/10 09:18:34;;;;;;;24.52;7.15;;;6.20;99.90;;;;;;5140603;27;20086;-80
2023/01/10 09:21:01;;;;;;;26.35;7.88;;;6.30;99.90;;;;;;5133530;27;20063;-81
2023/01/10 09:23:27;;;;;;;16.70;4.70;;;6.30;99.90;;;;;;5123694;27;20059;-81
2023/01/10 09:25:56;;;;;;;23.88;8.13;;;6.40;99.90;;;;;;5128543;27;20039;-81
2023/01/10 09:28:25;;;;;;;25.20;7.72;;;6.50;99.90;;;;;;5094375;28;20123;-79
2023/01/10 09:30:52;;;;;;;17.20;4.53;;;6.60;99.90;;;;;;5093677;27;20046;-78
2023/01/10 09:33:18;;;;;;;20.55;6.85;;;6.70;99.90;;;;;;5095180;28;20172;-79
2023/01/10 09:35:44;;;;;;;20.75;4.50;;;6.70;99.90;;;;;;5113620;28;20032;-79
2023/01/10 09:38:13;;;;;;;24.55;7.88;;;6.80;99.90;;;;;;5099067;27;20118;-80
2023/01/10 09:40:57;;;;;;;23.20;8.05;;;6.80;99.90;;;;;;5107771;27;20115;-79
2023/01/10 09:43:33;;;;;;;22.25;4.32;;;6.90;99.90;;;;;;5113354;28;20036;-79
2023/01/10 09:46:11;;;;;;;20.27;7.28;;;6.90;99.90;;;;;;5116148;27;20069;-81
2023/01/10 09:48:39;;;;;;;26.65;7.75;;;7.00;99.90;;;;;;5132254;27;20096;-81
2023/01/10 09:51:26;;;;;;;19.20;4.53;;;7.00;99.90;;;;;;5094365;28;20036;-80
2023/01/10 09:53:58;;;;;;;23.17;7.57;;;7.00;99.90;;;;;;5094539;28;20040;-81
2023/01/10 09:56:25;;;;;;;21.70;5.32;;;7.00;99.90;;;;;;5100535;27;20122;-81
2023/01/10 09:58:51;;;;;;;22.50;7.45;;;7.00;99.90;;;;;;5111927;27;20095;-80
2023/01/10 10:01:22;;;;;;;22.88;7.10;;;7.00;99.90;;;;;;5114990;27;20091;-80
2023/01/10 10:03:55;;;;;;;22.08;7.22;;;7.00;99.90;;;;;;5112890;27;20051;-81
2023/01/10 10:06:22;;;;;;;24.48;6.20;;;7.10;99.90;;;;;;5113276;27;20075;-82
2023/01/10 10:08:49;;;;;;;23.08;8.07;;;7.10;99.90;;;;;;5114797;27;20043;-83
2023/01/10 10:11:33;;;;;;;26.17;7.63;;;7.10;99.90;;;;;;5130696;27;20043;-81
2023/01/10 10:14:17;;;;;;;19.13;5.25;;;7.10;99.90;;;;;;5126734;27;20091;-82
2023/01/10 10:16:42;;;;;;;22.42;8.95;;;7.20;99.90;;;;;;5117369;27;20039;-82
2023/01/10 10:19:46;;;;;;;19.50;5.07;;;7.20;99.90;;;;;;5102463;27;20066;-83
2023/01/10 10:22:30;;;;;;;25.90;10.38;;;7.30;99.90;;;;;;5114111;27;20046;-84
2023/01/10 10:25:04;;;;;;;26.30;11.55;;;7.20;99.90;;;;;;5117315;27;20119;-83
2023/01/10 10:27:53;;;;;;;28.10;12.25;;;7.20;99.90;;;;;;5110818;28;20055;-83
2023/01/10 10:30:26;;;;;;;27.33;8.48;;;7.20;99.90;;;;;;5108134;27;20221;-82
2023/01/10 10:33:27;;;;;;;27.00;12.73;;;7.20;99.90;;;;;;5086499;27;20091;-86
2023/01/10 10:36:44;;;;;;;31.43;12.57;;;7.20;99.90;;;;;;5132142;27;20039;-82
2023/01/10 10:39:16;;;;;;;27.23;12.70;;;7.30;99.90;;;;;;5097467;27;20082;-82
2023/01/10 10:41:45;;;;;;;27.52;13.02;;;7.30;99.90;;;;;;5117498;27;20055;-82
2023/01/10 10:44:38;;;;;;;26.98;13.18;;;7.30;99.90;;;;;;5121178;27;20047;-82
2023/01/10 10:47:14;;;;;;;28.23;12.73;;;7.30;99.90;;;;;;5118444;27;20613;-82
2023/01/10 10:50:03;;;;;;;31.67;13.23;;;7.30;99.90;;;;;;5123042;27;20042;-82
2023/01/10 10:52:33;;;;;;;28.45;12.88;;;7.30;99.90;;;;;;5111215;27;20049;-83
2023/01/10 10:55:00;;;;;;;28.40;12.75;;;7.30;99.90;;;;;;5115782;27;20077;-84
2023/01/10 10:57:33;;;;;;;25.42;12.65;;;7.30;99.90;;;;;;5132967;27;20438;-84
2023/01/10 11:00:00;;;;;;;23.75;12.10;;;7.30;99.90;;;;;;5128624;27;20439;-84
2023/01/10 11:02:28;;;;;;;28.23;12.70;;;7.40;99.90;;;;;;5135066;27;20054;-83
2023/01/10 11:05:02;;;;;;;27.08;11.68;;;7.40;99.90;;;;;;5103518;27;20047;-83
2023/01/10 11:07:33;;;;;;;28.23;10.85;;;7.40;99.90;;;;;;5113155;27;20058;-84
2023/01/10 11:10:13;;;;;;;23.20;11.18;;;7.40;99.90;;;;;;5093876;27;20071;-81
2023/01/10 11:12:44;;;;;;;19.23;7.15;;;7.40;99.90;;;;;;5124635;27;20075;-81
2023/01/10 11:15:10;;;;;;;24.13;10.82;;;7.30;99.90;;;;;;5094787;27;20046;-83
2023/01/10 11:17:39;;;;;;;25.42;10.93;;;7.40;99.90;;;;;;5132428;27;20401;-81
2023/01/10 11:20:16;;;;;;;25.42;7.82;;;7.40;99.90;;;;;;5094342;27;20046;-81
2023/01/10 11:22:49;;;;;;;26.52;10.55;;;7.40;99.90;;;;;;5105480;28;20506;-81
2023/01/10 11:25:18;;;;;;;20.95;9.38;;;7.40;99.90;;;;;;5096622;28;20035;-81
2023/01/10 11:27:53;;;;;;;23.73;9.25;;;7.40;99.90;;;;;;5095450;27;20667;-82
2023/01/10 11:30:25;;;;;;;27.45;9.95;;;7.40;99.90;;;;;;5094812;28;20075;-82
2023/01/10 11:33:01;;;;;;;29.23;9.20;;;7.40;99.90;;;;;;5128341;27;20044;-82
2023/01/10 11:35:35;;;;;;;25.65;8.82;;;7.40;99.90;;;;;;5112223;27;20036;-82
2023/01/10 11:38:03;;;;;;;25.75;8.70;;;7.50;99.90;;;;;;5105192;27;20049;-82
2023/01/10 11:40:35;;;;;;;25.27;9.18;;;7.40;99.90;;;;;;5108148;27;20051;-83
2023/01/10 11:43:40;;;;;;;21.98;9.10;;;7.40;99.90;;;;;;5126320;27;20043;-81
2023/01/10 11:46:16;;;;;;;26.23;8.50;;;7.40;99.90;;;;;;5112685;27;20438;-81
2023/01/10 11:48:44;;;;;;;22.65;8.15;;;7.50;99.90;;;;;;5112724;27;20031;-86
2023/01/10 11:51:25;;;;;;;21.98;7.97;;;7.40;99.90;;;;;;5129411;27;20395;-80
2023/01/10 11:54:02;;;;;;;16.98;5.22;;;7.40;99.90;;;;;;5110800;28;20184;-79
2023/01/10 11:56:32;;;;;;;18.23;5.75;;;7.40;99.90;;;;;;5087568;27;20054;-80
2023/01/10 11:59:06;;;;;;;25.92;9.10;;;7.40;99.90;;;;;;5111290;27;20042;-81
2023/01/10 12:01:43;;;;;;;21.33;8.40;;;7.40;99.90;;;;;;5113560;27;20114;-79
2023/01/10 12:04:19;;;;;;;20.10;8.50;;;7.40;99.90;;;;;;5112259;27;20042;-79
2023/01/10 12:06:54;;;;;;;24.73;8.55;;;7.40;99.90;;;;;;5111022;28;20536;-80
2023/01/10 12:09:43;;;;;;;23.83;8.32;;;7.50;99.90;;;;;;5131066;27;20159;-80
2023/01/10 12:12:22;;;;;;;26.50;8.13;;;7.40;99.90;;;;;;5099472;28;20121;-80
2023/01/10 12:14:49;;;;;;;21.35;7.55;;;7.40;99.90;;;;;;5112227;27;20042;-79
2023/01/10 12:17:21;;;;;;;21.77;5.22;;;7.40;99.90;;;;;;5132180;27;20038;-80
2023/01/10 12:19:47;;;;;;;;;;;7.40;99.90;;;;;;5110041;28;20062;-78
2023/01/10 12:22:14;;;;;;;20.98;7.47;;;7.30;99.90;;;;;;5110610;28;19919;-79
2023/01/10 12:24:44;;;;;;;24.75;7.78;;;7.30;99.90;;;;;;5109372;27;20054;-79
2023/01/10 12:27:15;;;;;;;23.02;7.57;;;7.30;99.90;;;;;;5105281;27;20043;-78
2023/01/10 12:29:59;;;;;;;19.40;7.53;;;7.30;99.90;;;;;;5116732;27;20031;-81
2023/01/10 12:32:36;;;;;;;22.75;7.28;;;7.30;99.90;;;;;;5116877;27;20042;-80
2023/01/10 12:35:09;;;;;;;20.08;7.68;;;7.30;99.90;;;;;;5099858;27;20378;-80
2023/01/10 12:37:49;;;;;;;24.75;8.02;;;7.30;99.90;;;;;;5116982;27;20039;-81
2023/01/10 12:40:37;;;;;;;26.35;8.18;;;7.30;99.90;;;;;;5114169;27;20066;-81
2023/01/10 12:46:11;;;;;;;;;;;7.20;99.90;;;;;;5100723;28;20166;-80
2023/01/10 12:49:00;;;;;;;24.15;8.75;;;7.20;99.90;;;;;;5098737;27;20013;-82
2023/01/10 12:51:28;;;;;;;23.45;8.43;;;7.20;99.90;;;;;;5135684;27;20048;-80
2023/01/10 12:54:02;;;;;;;23.35;8.27;;;7.20;99.90;;;;;;5107637;27;20035;-79
2023/01/10 12:56:29;;;;;;;20.92;8.57;;;7.20;99.90;;;;;;5130750;27;20087;-78
2023/01/10 12:59:36;;;;;;;23.40;8.73;;;7.20;99.90;;;;;;5111117;27;20046;-78
2023/01/10 13:02:03;;;;;;;19.80;5.72;;;7.20;99.90;;;;;;5126985;27;20055;-78
2023/01/10 13:04:33;;;;;;;25.02;8.85;;;7.10;99.90;;;;;;5087506;28;20027;-78
2023/01/10 13:07:00;;;;;;;26.35;8.80;;;7.10;99.90;;;;;;5113615;28;20442;-78
2023/01/10 13:09:27;;;;;;;25.23;8.90;;;7.10;99.90;;;;;;5114060;27;20031;-78
2023/01/10 13:12:23;;;;;;;20.42;5.32;;;7.10;99.90;;;;;;5114833;27;20054;-78